EW1672 Weather Reports


Display with metric or nautical units.
time (UTC)temp
F
wind
direction
speed
MPH
gust
MPH
rain 1hr
in
rain 24hr
in
rain mn
in
humidity
%
barometer
mb
20190923171822 88 209 1.0 8.0 0.00 0.00 0.00 55 1017.9
20190923170819 87 297 1.0 7.0 0.00 0.00 0.00 55 1017.9
20190923165835 86 91 1.0 5.0 0.00 0.00 0.00 56 1018.0
20190923164823 87 302 0.0 4.0 0.00 0.00 0.00 57 1018.0
20190923163820 86 243 1.0 4.0 0.00 0.00 0.00 56 1018.2
20190923162817 85 304 1.0 5.0 0.00 0.00 0.00 57 1018.3
20190923161814 84 207 1.0 4.0 0.00 0.00 0.00 58 1018.5
20190923160830 83 261 0.0 3.0 0.00 0.00 0.00 59 1018.6
20190923155819 82 265 0.0 3.0 0.00 0.00 0.00 60 1018.7
20190923154815 82 119 0.0 1.0 0.00 0.00 0.00 60 1018.8
20190923153812 82 278 0.0 2.0 0.00 0.00 0.00 59 1018.9
20190923152829 83 281 0.0 3.0 0.00 0.00 0.00 57 1018.9
20190923151826 82 316 1.0 4.0 0.00 0.00 0.00 56 1019.0
20190923150834 81 79 0.0 2.0 0.00 0.00 0.00 59 1019.0
20190923145822 80 231 0.0 1.0 0.00 0.00 0.00 60 1019.2
20190923144819 79 270 0.0 2.0 0.00 0.00 0.00 62 1019.2
20190923143816 78 292 0.0 5.0 0.00 0.00 0.00 63 1019.1
20190923142832 77 245 0.0 2.0 0.00 0.00 0.00 65 1019.1
20190923141830 77 237 0.0 1.0 0.00 0.00 0.00 65 1019.2
20190923140817 76 290 0.0 1.0 0.00 0.00 0.00 66 1019.3
20190923135813 75 246 0.0 1.0 0.00 0.00 0.00 69 1019.2
20190923134830 74 272 0.0 0.0 0.00 0.00 0.00 72 1019.3
20190923133826 73 272 0.0 0.0 0.00 0.00 0.00 76 1019.2
20190923132814 72 272 0.0 0.0 0.00 0.00 0.00 77 1019.2
20190923131840 71 272 0.0 0.0 0.00 0.00 0.00 78 1019.2
20190923130828 70 272 0.0 0.0 0.00 0.00 0.00 81 1019.0
20190923125825 69 272 0.0 0.0 0.00 0.00 0.00 83 1019.0
20190923124823 68 272 0.0 0.0 0.00 0.00 0.00 84 1018.9
20190923123839 67 272 0.0 0.0 0.00 0.00 0.00 83 1018.9
20190923122827 66 272 0.0 0.0 0.00 0.00 0.00 83 1018.8
20190923121824 65 272 0.0 0.0 0.00 0.00 0.00 83 1018.8
20190923120821 64 272 0.0 0.0 0.00 0.00 0.00 82 1018.9
20190923115817 64 272 0.0 0.0 0.00 0.00 0.00 82 1018.8
20190923114834 63 272 0.0 0.0 0.00 0.00 0.00 82 1018.8
20190923113822 63 272 0.0 0.0 0.00 0.00 0.00 82 1018.7
20190923112820 63 272 0.0 0.0 0.00 0.00 0.00 82 1018.5
20190923111830 63 272 0.0 0.0 0.00 0.00 0.00 82 1018.4
20190923110827 63 272 0.0 0.0 0.00 0.00 0.00 82 1018.5
20190923105824 62 272 0.0 0.0 0.00 0.00 0.00 81 1018.5
20190923104813 62 272 0.0 0.0 0.00 0.00 0.00 81 1018.3
20190923103829 62 272 0.0 0.0 0.00 0.00 0.00 81 1018.4
20190923102826 62 272 0.0 0.0 0.00 0.00 0.00 81 1018.4
20190923101822 62 272 0.0 0.0 0.00 0.00 0.00 81 1018.3
20190923100839 62 272 0.0 0.0 0.00 0.00 0.00 82 1018.2
20190923095837 62 272 0.0 0.0 0.00 0.00 0.00 82 1018.2
20190923094826 62 272 0.0 0.0 0.00 0.00 0.00 82 1018.2
20190923093824 62 272 0.0 0.0 0.00 0.00 0.00 82 1018.1
20190923092822 62 272 0.0 0.0 0.00 0.00 0.00 82 1018.1
20190923091840 62 272 0.0 0.0 0.00 0.00 0.00 82 1018.1
20190923090838 62 272 0.0 0.0 0.00 0.00 0.00 82 1018.0
20190923085827 62 272 0.0 0.0 0.00 0.00 0.00 83 1018.0
20190923084825 62 272 0.0 0.0 0.00 0.00 0.00 83 1018.1
20190922180832 89 51 0.0 2.0 0.00 0.00 0.00 40 1020.0
20190922175823 88 238 0.0 2.0 0.00 0.00 0.00 40 1020.3
20190922174822 88 285 0.0 2.0 0.00 0.00 0.00 41 1020.5
20190922173823 88 257 0.0 3.0 0.00 0.00 0.00 41 1020.6
20190922172821 87 308 0.0 2.0 0.00 0.00 0.00 41 1020.7